createdAt,value
2022-07-30T00:00:19.787Z,18.1
2022-07-30T00:05:18.235Z,18.1
2022-07-30T00:10:18.287Z,18.1
2022-07-30T00:15:18.200Z,18.0
2022-07-30T00:20:18.563Z,18.0
2022-07-30T00:25:18.262Z,18.0
2022-07-30T00:30:18.215Z,17.9
2022-07-30T00:35:18.507Z,17.9
2022-07-30T00:40:18.183Z,17.9
2022-07-30T00:45:19.315Z,17.8
2022-07-30T00:50:18.704Z,17.8
2022-07-30T00:55:18.710Z,17.8
2022-07-30T01:00:21.156Z,17.8
2022-07-30T01:05:18.222Z,17.8
2022-07-30T01:10:18.194Z,17.8
2022-07-30T01:15:18.113Z,17.8
2022-07-30T01:20:18.101Z,17.8
2022-07-30T01:25:18.135Z,17.8
2022-07-30T01:30:18.487Z,17.7
2022-07-30T01:35:18.201Z,17.6
2022-07-30T01:40:18.143Z,17.6
2022-07-30T01:45:18.312Z,17.5
2022-07-30T01:50:18.261Z,17.5
2022-07-30T01:55:18.071Z,17.5
2022-07-30T02:00:18.041Z,17.5
2022-07-30T02:05:18.104Z,17.5
2022-07-30T02:10:18.026Z,17.5
2022-07-30T02:15:18.080Z,17.4
2022-07-30T02:20:18.099Z,17.4
2022-07-30T02:25:18.034Z,17.4
2022-07-30T02:30:18.156Z,17.4
2022-07-30T02:35:18.077Z,17.4
2022-07-30T02:40:18.107Z,17.3
2022-07-30T02:45:17.948Z,17.3
2022-07-30T02:50:18.055Z,17.4
2022-07-30T02:55:18.075Z,17.4
2022-07-30T03:00:18.008Z,17.3
2022-07-30T03:05:17.981Z,17.3
2022-07-30T03:10:18.126Z,17.4
2022-07-30T03:15:18.052Z,17.3
2022-07-30T03:20:18.074Z,17.4
2022-07-30T03:25:18.239Z,17.4
2022-07-30T03:30:18.078Z,17.4
2022-07-30T03:35:20.247Z,17.3
2022-07-30T03:40:17.927Z,17.3
2022-07-30T03:45:18.059Z,17.3
2022-07-30T03:50:18.058Z,17.2
2022-07-30T03:55:17.927Z,17.2
2022-07-30T04:00:17.953Z,17.2
2022-07-30T04:05:18.005Z,17.2
2022-07-30T04:10:17.882Z,17.2
2022-07-30T04:16:37.179Z,17.2
2022-07-30T04:20:18.186Z,17.2
2022-07-30T04:25:22.460Z,17.3
2022-07-30T04:30:17.807Z,17.3
2022-07-30T04:35:50.353Z,17.4
2022-07-30T04:40:17.826Z,17.4
2022-07-30T04:45:17.771Z,17.5
2022-07-30T04:50:17.749Z,17.5
2022-07-30T04:55:18.003Z,17.5
2022-07-30T05:00:17.758Z,17.6
2022-07-30T05:05:17.818Z,17.6
2022-07-30T05:10:17.756Z,17.6
2022-07-30T05:15:17.687Z,17.7
2022-07-30T05:20:17.699Z,17.8
2022-07-30T05:25:17.753Z,17.9
2022-07-30T05:30:18.402Z,18.0
2022-07-30T05:35:17.660Z,18.1
2022-07-30T05:40:17.799Z,18.2
2022-07-30T05:45:17.710Z,18.3
2022-07-30T05:50:17.852Z,18.4
2022-07-30T05:55:17.687Z,18.6
2022-07-30T06:00:17.663Z,18.8
2022-07-30T06:05:17.669Z,18.9
2022-07-30T06:10:17.640Z,19.1
2022-07-30T06:15:21.747Z,19.2
2022-07-30T06:20:17.660Z,19.3
2022-07-30T06:25:18.521Z,19.4
2022-07-30T06:30:17.555Z,19.4
2022-07-30T06:35:17.610Z,19.5
2022-07-30T06:40:17.622Z,19.5
2022-07-30T06:45:17.603Z,19.6
2022-07-30T06:50:17.505Z,19.6
2022-07-30T06:55:17.604Z,19.6
2022-07-30T07:00:17.579Z,19.7
2022-07-30T07:05:17.878Z,19.8
2022-07-30T07:10:17.541Z,19.9
2022-07-30T07:15:19.377Z,19.9
2022-07-30T07:20:17.548Z,20.0
2022-07-30T07:25:17.490Z,20.1
2022-07-30T07:30:17.593Z,20.2
2022-07-30T07:35:17.523Z,20.3
2022-07-30T07:40:17.499Z,20.4
2022-07-30T07:45:17.585Z,20.5
2022-07-30T07:50:17.563Z,20.7
2022-07-30T07:55:17.529Z,21.0
2022-07-30T08:00:17.554Z,21.2
2022-07-30T08:05:17.486Z,21.4
2022-07-30T08:10:17.680Z,21.6
2022-07-30T08:15:21.806Z,21.8
2022-07-30T08:20:17.433Z,22.0
2022-07-30T08:25:24.399Z,22.1
2022-07-30T08:30:17.406Z,22.2
2022-07-30T08:35:17.484Z,18.1
2022-07-30T08:40:17.489Z,22.6
2022-07-30T08:45:17.339Z,22.7
2022-07-30T08:50:17.498Z,23.0
2022-07-30T08:55:17.583Z,23.2
2022-07-30T09:00:17.351Z,23.4
2022-07-30T09:05:27.555Z,23.4
2022-07-30T09:10:17.378Z,23.7
2022-07-30T09:15:17.654Z,24.0
2022-07-30T09:20:17.527Z,24.1
2022-07-30T09:25:27.507Z,24.3
2022-07-30T09:30:17.379Z,24.4
2022-07-30T09:35:17.454Z,24.5
2022-07-30T09:40:17.368Z,24.8
2022-07-30T09:45:17.355Z,24.8
2022-07-30T09:50:29.493Z,24.9
2022-07-30T09:55:17.564Z,24.8
2022-07-30T10:00:17.682Z,24.8
2022-07-30T10:05:19.177Z,24.8
2022-07-30T10:10:17.478Z,24.7
2022-07-30T10:15:17.438Z,24.8
2022-07-30T10:20:17.390Z,25.0
2022-07-30T10:25:17.281Z,25.3
2022-07-30T10:30:17.230Z,25.7
2022-07-30T10:35:34.348Z,26.0
2022-07-30T10:40:17.258Z,26.0
2022-07-30T10:45:17.883Z,26.0
2022-07-30T10:50:17.376Z,26.1
2022-07-30T10:55:17.568Z,26.1
2022-07-30T11:00:17.859Z,26.1
2022-07-30T11:05:17.277Z,26.0
2022-07-30T11:10:17.332Z,25.8
2022-07-30T11:15:19.327Z,25.7
2022-07-30T11:20:17.306Z,25.5
2022-07-30T11:25:17.350Z,25.4
2022-07-30T11:30:17.693Z,25.3
2022-07-30T11:35:17.312Z,25.3
2022-07-30T11:40:17.154Z,25.2
2022-07-30T11:45:17.417Z,25.1
2022-07-30T11:50:17.284Z,25.0
2022-07-30T11:55:17.240Z,24.9
2022-07-30T12:00:17.146Z,24.8
2022-07-30T12:05:17.362Z,24.8
2022-07-30T12:10:17.158Z,24.7
2022-07-30T12:15:17.118Z,24.6
2022-07-30T12:20:17.201Z,24.4
2022-07-30T12:25:17.207Z,24.1
2022-07-30T12:30:17.143Z,23.6
2022-07-30T12:35:17.067Z,23.1
2022-07-30T12:40:17.124Z,22.7
2022-07-30T12:45:17.088Z,22.3
2022-07-30T12:50:17.116Z,22.0
2022-07-30T12:55:17.060Z,21.8
2022-07-30T13:00:18.563Z,21.6
2022-07-30T13:05:17.611Z,21.5
2022-07-30T13:10:16.990Z,21.4
2022-07-30T13:15:17.057Z,21.4
2022-07-30T13:20:17.033Z,21.3
2022-07-30T13:25:17.029Z,21.2
2022-07-30T13:30:17.140Z,21.2
2022-07-30T13:35:16.978Z,21.2
2022-07-30T13:40:17.078Z,21.1
2022-07-30T13:45:17.034Z,21.1
2022-07-30T13:50:16.988Z,21.1
2022-07-30T13:55:16.992Z,21.0
2022-07-30T14:00:16.901Z,21.0
2022-07-30T14:05:17.150Z,21.0
2022-07-30T14:10:16.957Z,21.0
2022-07-30T14:15:17.996Z,21.0
2022-07-30T14:20:17.000Z,21.0
2022-07-30T14:25:16.993Z,21.0
2022-07-30T14:30:17.084Z,21.0
2022-07-30T14:35:17.002Z,20.9
2022-07-30T14:40:17.127Z,20.8
2022-07-30T14:45:17.035Z,20.8
2022-07-30T14:50:16.975Z,20.8
2022-07-30T14:55:17.079Z,20.8
2022-07-30T15:00:16.839Z,20.8
2022-07-30T15:05:16.919Z,20.8
2022-07-30T15:10:17.010Z,20.7
2022-07-30T15:15:16.948Z,20.7
2022-07-30T15:20:16.788Z,20.6
2022-07-30T15:25:16.893Z,20.6
2022-07-30T15:30:17.631Z,20.6
2022-07-30T15:35:16.922Z,20.5
2022-07-30T15:40:16.822Z,20.5
2022-07-30T15:45:18.295Z,20.4
2022-07-30T15:50:17.026Z,20.3
2022-07-30T15:55:16.983Z,20.2
2022-07-30T16:00:16.818Z,20.2
2022-07-30T16:05:16.837Z,20.2
2022-07-30T16:10:17.244Z,20.1
2022-07-30T16:15:16.731Z,20.1
2022-07-30T16:20:16.892Z,20.1
2022-07-30T16:25:16.826Z,20.0
2022-07-30T16:30:16.758Z,20.0
2022-07-30T16:35:16.789Z,20.0
2022-07-30T16:40:16.752Z,20.0
2022-07-30T16:45:16.804Z,20.0
2022-07-30T16:50:16.763Z,19.9
2022-07-30T16:55:16.775Z,19.9
2022-07-30T17:00:16.749Z,19.9
2022-07-30T17:05:16.795Z,19.9
2022-07-30T17:10:16.676Z,19.9
2022-07-30T17:15:17.019Z,19.8
2022-07-30T17:20:16.822Z,19.8
2022-07-30T17:25:17.084Z,19.8
2022-07-30T17:30:16.753Z,19.8
2022-07-30T17:35:16.703Z,19.8
2022-07-30T17:40:29.353Z,19.7
2022-07-30T17:45:16.644Z,19.6
2022-07-30T17:50:16.644Z,19.6
2022-07-30T17:55:16.846Z,19.5
2022-07-30T18:00:16.717Z,19.5
2022-07-30T18:05:16.784Z,19.4
2022-07-30T18:10:16.592Z,19.4
2022-07-30T18:15:16.865Z,19.3
2022-07-30T18:20:17.225Z,19.3
2022-07-30T18:25:18.599Z,19.2
2022-07-30T18:30:16.758Z,19.0
2022-07-30T18:35:16.710Z,18.8
2022-07-30T18:40:20.593Z,18.6
2022-07-30T18:45:16.499Z,18.5
2022-07-30T18:50:16.640Z,18.3
2022-07-30T18:55:16.559Z,18.2
2022-07-30T19:00:34.409Z,18.1
2022-07-30T19:05:16.642Z,18.0
2022-07-30T19:10:16.563Z,17.9
2022-07-30T19:15:16.690Z,17.8
2022-07-30T19:20:16.486Z,17.8
2022-07-30T19:25:16.486Z,17.8
2022-07-30T19:30:16.502Z,17.8
2022-07-30T19:35:16.522Z,17.8
2022-07-30T19:40:16.346Z,17.7
2022-07-30T19:45:16.519Z,17.7
2022-07-30T19:50:16.488Z,17.7
2022-07-30T19:55:16.994Z,17.6
2022-07-30T20:00:25.165Z,17.6
2022-07-30T20:05:16.534Z,17.5
2022-07-30T20:10:16.445Z,17.4
2022-07-30T20:15:16.522Z,17.4
2022-07-30T20:20:16.412Z,17.3
2022-07-30T20:25:16.546Z,17.2
2022-07-30T20:30:16.925Z,17.2
2022-07-30T20:35:16.390Z,17.1
2022-07-30T20:40:16.427Z,17.0
2022-07-30T20:45:16.398Z,17.0
2022-07-30T20:50:16.437Z,16.9
2022-07-30T20:55:16.335Z,16.9
2022-07-30T21:00:16.488Z,16.9
2022-07-30T21:05:16.339Z,16.8
2022-07-30T21:10:16.391Z,16.8
2022-07-30T21:15:23.678Z,16.8
2022-07-30T21:20:16.491Z,16.8
2022-07-30T21:25:16.322Z,16.7
2022-07-30T21:30:20.396Z,16.7
2022-07-30T21:35:16.334Z,16.7
2022-07-30T21:40:16.288Z,16.6
2022-07-30T21:45:16.388Z,16.6
2022-07-30T21:50:16.353Z,16.6
2022-07-30T21:55:16.236Z,16.6
2022-07-30T22:00:16.249Z,16.6
2022-07-30T22:05:16.177Z,16.5
2022-07-30T22:10:16.159Z,16.5
2022-07-30T22:15:16.179Z,16.5
2022-07-30T22:20:16.138Z,16.5
2022-07-30T22:25:16.154Z,16.4
2022-07-30T22:30:16.049Z,16.4
2022-07-30T22:35:16.274Z,16.4
2022-07-30T22:40:16.309Z,16.5
2022-07-30T22:45:16.160Z,16.5
2022-07-30T22:50:17.497Z,16.4
2022-07-30T22:55:16.128Z,16.4
2022-07-30T23:00:27.676Z,16.4
2022-07-30T23:05:16.207Z,16.4
2022-07-30T23:10:18.153Z,16.5
2022-07-30T23:15:16.073Z,16.5
2022-07-30T23:20:16.024Z,16.5
2022-07-30T23:25:16.044Z,16.5
2022-07-30T23:30:15.993Z,16.5
2022-07-30T23:35:17.338Z,16.4
2022-07-30T23:40:15.934Z,16.4
2022-07-30T23:45:16.012Z,16.4
2022-07-30T23:50:15.990Z,16.3
2022-07-30T23:55:16.005Z,16.4
